createdAt,value
2023-08-11T00:00:44.910Z,19.00
2023-08-11T00:01:46.489Z,19.04
2023-08-11T00:02:51.592Z,19.09
2023-08-11T00:03:53.251Z,19.13
2023-08-11T00:04:54.870Z,19.17
2023-08-11T00:05:56.547Z,19.17
2023-08-11T00:06:58.440Z,19.17
2023-08-11T00:08:00.054Z,19.19
2023-08-11T00:09:01.909Z,19.19
2023-08-11T00:10:04.382Z,19.03
2023-08-11T00:11:07.595Z,18.73
2023-08-11T00:12:09.333Z,18.62
2023-08-11T00:13:14.144Z,18.64
2023-08-11T00:14:15.696Z,18.63
2023-08-11T00:15:17.939Z,18.69
2023-08-11T00:16:19.731Z,18.75
2023-08-11T00:17:22.264Z,18.78
2023-08-11T00:18:23.871Z,18.84
2023-08-11T00:19:26.656Z,18.67
2023-08-11T00:20:29.495Z,18.57
2023-08-11T00:21:31.301Z,18.64
2023-08-11T00:22:33.729Z,18.54
2023-08-11T00:23:37.167Z,18.47
2023-08-11T00:24:38.782Z,18.41
2023-08-11T00:25:40.417Z,18.33
2023-08-11T00:26:42.045Z,18.31
2023-08-11T00:27:43.708Z,18.29
2023-08-11T00:28:46.214Z,18.32
2023-08-11T00:29:47.771Z,18.38
2023-08-11T00:30:50.215Z,18.42
2023-08-11T00:31:51.823Z,18.32
2023-08-11T00:32:53.752Z,18.26
2023-08-11T00:33:55.435Z,18.31
2023-08-11T00:34:57.437Z,18.37
2023-08-11T00:35:59.024Z,18.36
2023-08-11T00:37:00.955Z,18.32
2023-08-11T00:38:02.543Z,18.30
2023-08-11T00:39:04.307Z,18.25
2023-08-11T00:40:07.681Z,18.06
2023-08-11T00:41:09.411Z,18.02
2023-08-11T00:42:11.148Z,18.05
2023-08-11T00:43:12.840Z,18.13
2023-08-11T00:44:14.471Z,18.22
2023-08-11T00:45:16.435Z,18.16
2023-08-11T00:46:19.642Z,18.07
2023-08-11T00:47:21.595Z,17.83
2023-08-11T00:48:23.191Z,17.67
2023-08-11T00:49:25.361Z,17.60
2023-08-11T00:50:27.529Z,17.60
2023-08-11T00:51:29.968Z,17.59
2023-08-11T00:52:31.687Z,17.58
2023-08-11T00:53:34.596Z,17.49
2023-08-11T00:54:37.876Z,17.38
2023-08-11T00:55:39.691Z,17.24
2023-08-11T00:56:45.406Z,17.09
2023-08-11T00:57:47.917Z,17.07
2023-08-11T00:58:52.518Z,17.11
2023-08-11T00:59:54.150Z,17.11
2023-08-11T01:00:56.826Z,17.03
2023-08-11T01:01:58.496Z,16.90
2023-08-11T01:03:00.249Z,16.75
2023-08-11T01:04:02.100Z,16.65
2023-08-11T01:05:05.353Z,16.72
2023-08-11T01:06:32.502Z,16.89
2023-08-11T01:07:43.061Z,17.01
2023-08-11T01:08:52.104Z,17.09
2023-08-11T01:10:05.010Z,17.23
2023-08-11T01:11:34.704Z,17.36
2023-08-11T01:12:47.242Z,17.47
2023-08-11T01:13:54.610Z,17.59
2023-08-11T01:15:30.892Z,17.68
2023-08-11T01:16:33.993Z,17.73
2023-08-11T01:17:37.661Z,17.79
2023-08-11T01:18:40.165Z,17.76
2023-08-11T01:19:42.063Z,17.64
2023-08-11T01:20:44.648Z,17.61
2023-08-11T01:21:47.964Z,17.52
2023-08-11T01:22:55.016Z,17.52
2023-08-11T01:23:57.371Z,17.61
2023-08-11T01:24:59.088Z,17.77
2023-08-11T01:26:02.311Z,17.84
2023-08-11T01:27:04.476Z,17.75
2023-08-11T01:28:06.236Z,17.64
2023-08-11T01:29:07.913Z,17.51
2023-08-11T01:30:10.017Z,17.27
2023-08-11T01:31:12.149Z,17.13
2023-08-11T01:32:13.996Z,17.13
2023-08-11T01:33:16.178Z,17.27
2023-08-11T01:34:17.904Z,17.37
2023-08-11T01:35:29.776Z,17.34
2023-08-11T01:36:42.288Z,17.28
2023-08-11T01:37:44.529Z,17.26
2023-08-11T01:38:46.088Z,17.26
2023-08-11T01:39:47.684Z,17.26
2023-08-11T01:40:49.856Z,17.24
2023-08-11T01:41:51.601Z,17.20
2023-08-11T01:42:56.000Z,17.17
2023-08-11T01:43:58.251Z,17.21
2023-08-11T01:44:59.852Z,17.12
2023-08-11T01:46:02.344Z,17.12
2023-08-11T01:47:06.799Z,17.16
2023-08-11T01:48:09.538Z,17.16
2023-08-11T01:49:13.572Z,17.22
2023-08-11T01:50:17.523Z,17.19
2023-08-11T01:51:19.492Z,17.02
2023-08-11T01:52:23.074Z,16.92
2023-08-11T01:53:25.112Z,16.85
2023-08-11T01:54:27.112Z,16.81
2023-08-11T01:55:30.232Z,16.81
2023-08-11T01:56:32.850Z,16.85
2023-08-11T01:57:39.273Z,16.93
2023-08-11T01:58:46.487Z,16.89
2023-08-11T01:59:48.616Z,16.91
2023-08-11T02:00:50.230Z,16.93
2023-08-11T02:01:51.970Z,16.92
2023-08-11T02:02:53.845Z,16.96
2023-08-11T02:03:55.588Z,16.99
2023-08-11T02:04:57.297Z,16.94
2023-08-11T02:06:00.143Z,16.99
2023-08-11T02:07:01.806Z,17.09
2023-08-11T02:08:03.979Z,17.13
2023-08-11T02:09:13.595Z,17.22
2023-08-11T02:10:15.225Z,17.25
2023-08-11T02:11:16.820Z,17.31
2023-08-11T02:12:18.656Z,17.36
2023-08-11T02:13:20.854Z,17.37
2023-08-11T02:14:22.712Z,17.24
2023-08-11T02:15:24.408Z,16.96
2023-08-11T02:16:26.365Z,16.80
2023-08-11T02:17:28.036Z,16.70
2023-08-11T02:18:29.874Z,16.74
2023-08-11T02:19:31.459Z,16.80
2023-08-11T02:20:34.185Z,16.89
2023-08-11T02:21:38.601Z,16.99
2023-08-11T02:22:40.278Z,17.10
2023-08-11T02:23:41.880Z,17.24
2023-08-11T02:24:43.603Z,17.32
2023-08-11T02:25:45.213Z,17.28
2023-08-11T02:26:46.747Z,17.26
2023-08-11T02:27:48.658Z,17.28
2023-08-11T02:28:50.514Z,17.35
2023-08-11T02:29:52.611Z,17.40
2023-08-11T02:30:54.271Z,17.43
2023-08-11T02:31:55.951Z,17.48
2023-08-11T02:32:57.725Z,17.55
2023-08-11T02:33:59.819Z,17.61
2023-08-11T02:35:01.980Z,17.61
2023-08-11T02:36:05.255Z,17.64
2023-08-11T02:37:07.094Z,17.68
2023-08-11T02:38:09.931Z,17.70
2023-08-11T02:39:11.595Z,17.68
2023-08-11T02:40:13.580Z,17.64
2023-08-11T02:41:15.174Z,17.62
2023-08-11T02:42:16.731Z,17.62
2023-08-11T02:43:18.383Z,17.67
2023-08-11T02:44:19.929Z,17.74
2023-08-11T02:45:22.024Z,17.77
2023-08-11T02:46:24.408Z,17.77
2023-08-11T02:47:26.025Z,17.81
2023-08-11T02:48:27.779Z,17.84
2023-08-11T02:49:29.393Z,17.85
2023-08-11T02:50:31.045Z,17.85
2023-08-11T02:51:32.694Z,17.86
2023-08-11T02:52:34.243Z,17.91
2023-08-11T02:53:36.340Z,17.94
2023-08-11T02:54:38.005Z,17.99
2023-08-11T02:55:39.576Z,18.02
2023-08-11T02:56:48.430Z,18.04
2023-08-11T02:57:50.286Z,18.06
2023-08-11T02:58:51.932Z,18.07
2023-08-11T02:59:53.523Z,18.09
2023-08-11T03:00:55.124Z,18.11
2023-08-11T03:01:56.686Z,18.11
2023-08-11T03:02:58.416Z,18.15
2023-08-11T03:04:01.094Z,18.21
2023-08-11T03:05:04.904Z,18.14
2023-08-11T03:06:06.515Z,18.13
2023-08-11T03:07:10.682Z,18.11
2023-08-11T03:08:12.301Z,18.01
2023-08-11T03:09:15.108Z,17.85
2023-08-11T03:10:16.724Z,17.84
2023-08-11T03:11:18.369Z,17.85
2023-08-11T03:12:20.817Z,17.87
2023-08-11T03:13:22.493Z,17.78
2023-08-11T03:14:24.121Z,17.71
2023-08-11T03:15:25.970Z,17.74
2023-08-11T03:16:27.671Z,17.69
2023-08-11T03:17:29.555Z,17.42
2023-08-11T03:18:31.695Z,17.13
2023-08-11T03:19:33.868Z,17.04
2023-08-11T03:20:35.431Z,17.16
2023-08-11T03:21:37.134Z,17.23
2023-08-11T03:22:38.815Z,17.31
2023-08-11T03:23:40.356Z,17.38
2023-08-11T03:24:41.945Z,17.38
2023-08-11T03:25:43.569Z,17.41
2023-08-11T03:26:45.120Z,17.42
2023-08-11T03:27:47.221Z,17.37
2023-08-11T03:28:48.827Z,17.41
2023-08-11T03:29:50.467Z,17.38
2023-08-11T03:30:52.021Z,17.42
2023-08-11T03:31:53.615Z,17.45
2023-08-11T03:32:55.344Z,17.27
2023-08-11T03:33:56.995Z,17.19
2023-08-11T03:34:58.628Z,17.20
2023-08-11T03:36:00.259Z,17.23
2023-08-11T03:37:01.889Z,17.16
2023-08-11T03:38:03.684Z,17.12
2023-08-11T03:39:05.447Z,17.00
2023-08-11T03:40:10.546Z,17.03
2023-08-11T03:41:12.186Z,17.02
2023-08-11T03:42:14.535Z,17.06
2023-08-11T03:43:16.278Z,17.06
2023-08-11T03:44:17.994Z,17.12
2023-08-11T03:45:19.744Z,17.21
2023-08-11T03:46:22.193Z,17.25
2023-08-11T03:47:23.826Z,17.13
2023-08-11T03:48:25.413Z,16.91
2023-08-11T03:49:27.517Z,16.80
2023-08-11T03:50:29.234Z,16.79
2023-08-11T03:51:30.924Z,16.85
2023-08-11T03:52:33.053Z,16.92
2023-08-11T03:53:35.084Z,16.86
2023-08-11T03:54:45.061Z,16.79
2023-08-11T03:55:47.713Z,16.74
2023-08-11T03:56:49.412Z,16.67
2023-08-11T03:57:51.025Z,16.70
2023-08-11T03:58:52.604Z,16.66
2023-08-11T03:59:54.201Z,16.65
2023-08-11T04:00:56.269Z,16.66
2023-08-11T04:01:57.934Z,16.71
2023-08-11T04:02:59.612Z,16.70
2023-08-11T04:04:01.834Z,16.66
2023-08-11T04:05:03.764Z,16.57
2023-08-11T04:06:05.389Z,16.56
2023-08-11T04:07:06.978Z,16.59
2023-08-11T04:08:08.848Z,16.55
2023-08-11T04:09:10.590Z,16.62
2023-08-11T04:10:12.461Z,16.68
2023-08-11T04:11:14.230Z,16.68
2023-08-11T04:12:15.802Z,16.70
2023-08-11T04:13:17.369Z,16.60
2023-08-11T04:14:18.951Z,16.48
2023-08-11T04:15:20.594Z,16.37
2023-08-11T04:16:22.790Z,16.39
2023-08-11T04:17:24.439Z,16.43
2023-08-11T04:18:26.356Z,16.42
2023-08-11T04:19:27.967Z,16.33
2023-08-11T04:20:30.049Z,16.27
2023-08-11T04:21:31.782Z,16.25
2023-08-11T04:22:39.068Z,16.22
2023-08-11T04:23:41.498Z,16.43
2023-08-11T04:24:43.143Z,16.55
2023-08-11T04:25:44.946Z,16.56
2023-08-11T04:26:46.625Z,16.61
2023-08-11T04:27:48.708Z,16.45
2023-08-11T04:28:50.382Z,16.37
2023-08-11T04:29:51.986Z,16.29
2023-08-11T04:30:54.836Z,16.32
2023-08-11T04:31:56.530Z,16.44
2023-08-11T04:32:58.385Z,16.65
2023-08-11T04:34:00.332Z,16.81
2023-08-11T04:35:01.933Z,16.96
2023-08-11T04:36:03.865Z,17.10
2023-08-11T04:37:06.644Z,17.05
2023-08-11T04:38:08.616Z,16.93
2023-08-11T04:39:11.620Z,16.83
2023-08-11T04:40:15.012Z,16.78
2023-08-11T04:41:16.680Z,16.81
2023-08-11T04:42:18.594Z,16.69
2023-08-11T04:43:20.732Z,16.65
2023-08-11T04:44:22.324Z,16.55
2023-08-11T04:45:23.956Z,16.34
2023-08-11T04:46:25.564Z,16.43
2023-08-11T04:47:27.565Z,16.60
2023-08-11T04:48:29.168Z,16.84
2023-08-11T04:49:30.798Z,17.08
2023-08-11T04:50:33.323Z,17.20
2023-08-11T04:51:34.925Z,17.28
2023-08-11T04:52:36.628Z,17.38
2023-08-11T04:53:39.452Z,17.50
2023-08-11T04:54:41.118Z,17.47
2023-08-11T04:55:42.854Z,17.63
2023-08-11T04:56:45.080Z,17.85
2023-08-11T04:57:46.755Z,18.08
2023-08-11T04:58:48.328Z,18.16
2023-08-11T04:59:50.199Z,18.12
2023-08-11T05:00:52.404Z,18.22
2023-08-11T05:01:56.459Z,18.37
2023-08-11T05:02:58.869Z,18.49
2023-08-11T05:04:00.718Z,18.71
2023-08-11T05:05:02.798Z,18.90
2023-08-11T05:06:06.807Z,19.01
2023-08-11T05:07:09.261Z,19.14
2023-08-11T05:08:11.360Z,19.36
2023-08-11T05:09:13.127Z,19.57
2023-08-11T05:10:14.712Z,19.69
2023-08-11T05:11:16.312Z,19.61
2023-08-11T05:12:17.965Z,19.56
2023-08-11T05:13:19.595Z,19.45
2023-08-11T05:14:21.175Z,19.18
2023-08-11T05:15:23.891Z,19.25
2023-08-11T05:16:25.670Z,19.38
2023-08-11T05:17:27.309Z,19.44
2023-08-11T05:18:37.944Z,19.43
2023-08-11T05:19:44.890Z,19.31
2023-08-11T05:20:47.827Z,19.40
2023-08-11T05:21:49.516Z,19.43
2023-08-11T05:22:53.379Z,19.37
2023-08-11T05:23:55.114Z,19.39
2023-08-11T05:24:56.676Z,19.47
2023-08-11T05:25:58.467Z,19.41
2023-08-11T05:27:00.040Z,19.38
2023-08-11T05:28:01.629Z,19.30
2023-08-11T05:29:03.256Z,19.40
2023-08-11T05:30:05.198Z,19.18
2023-08-11T05:31:07.185Z,18.95
2023-08-11T05:32:08.853Z,18.94
2023-08-11T05:33:10.573Z,19.09
2023-08-11T05:34:12.212Z,19.02
2023-08-11T05:35:13.812Z,19.04
2023-08-11T05:36:15.543Z,19.17
2023-08-11T05:37:18.200Z,19.23
2023-08-11T05:38:23.886Z,19.29
2023-08-11T05:39:25.592Z,19.46
2023-08-11T05:40:27.270Z,19.68
2023-08-11T05:41:28.864Z,19.70
2023-08-11T05:42:30.493Z,19.82
2023-08-11T05:43:32.064Z,19.93
2023-08-11T05:44:33.949Z,19.67
2023-08-11T05:45:35.526Z,19.66
2023-08-11T05:46:37.537Z,19.76
2023-08-11T05:47:39.485Z,19.95
2023-08-11T05:48:41.411Z,20.12
2023-08-11T05:49:43.101Z,20.34
2023-08-11T05:50:46.261Z,20.55
2023-08-11T05:51:47.954Z,20.80
2023-08-11T05:52:49.536Z,21.07
2023-08-11T05:53:53.941Z,21.19
2023-08-11T05:54:56.074Z,21.44
2023-08-11T05:55:58.253Z,21.65
2023-08-11T05:56:59.896Z,21.83
2023-08-11T05:58:01.566Z,21.96
2023-08-11T05:59:03.250Z,22.10
2023-08-11T06:00:06.045Z,22.18
2023-08-11T06:01:07.841Z,22.15
2023-08-11T06:02:09.454Z,22.23
2023-08-11T06:03:13.924Z,22.15
2023-08-11T06:04:15.593Z,22.21
2023-08-11T06:05:18.528Z,22.33
2023-08-11T06:06:20.099Z,22.30
2023-08-11T06:07:21.749Z,22.41
2023-08-11T06:08:23.380Z,22.61
2023-08-11T06:09:25.100Z,22.45
2023-08-11T06:10:27.703Z,22.27
2023-08-11T06:11:29.268Z,22.21
2023-08-11T06:12:31.781Z,22.00
2023-08-11T06:13:33.521Z,22.00
2023-08-11T06:14:35.157Z,22.22
2023-08-11T06:15:37.009Z,22.41
2023-08-11T06:16:38.572Z,22.60
2023-08-11T06:17:40.322Z,22.72
2023-08-11T06:18:41.998Z,22.76
2023-08-11T06:19:43.680Z,22.90
2023-08-11T06:20:45.579Z,23.08
2023-08-11T06:21:47.330Z,23.23
2023-08-11T06:22:49.540Z,23.36
2023-08-11T06:23:51.123Z,23.52
2023-08-11T06:24:52.713Z,23.63
2023-08-11T06:25:54.357Z,23.66
2023-08-11T06:26:56.303Z,23.72
2023-08-11T06:27:57.910Z,23.79
2023-08-11T06:28:59.536Z,23.79
2023-08-11T06:30:01.313Z,23.87
2023-08-11T06:31:03.378Z,24.01
2023-08-11T06:32:05.111Z,23.92
2023-08-11T06:33:06.750Z,23.79
2023-08-11T06:34:08.372Z,23.85
2023-08-11T06:35:10.209Z,23.76
2023-08-11T06:36:11.895Z,23.76
2023-08-11T06:37:13.537Z,23.93
2023-08-11T06:38:15.158Z,24.10
2023-08-11T06:39:17.959Z,24.26
2023-08-11T06:40:19.813Z,24.20
2023-08-11T06:41:21.485Z,24.23
2023-08-11T06:42:25.507Z,24.42
2023-08-11T06:43:27.442Z,24.48
2023-08-11T06:44:29.069Z,24.50
2023-08-11T06:45:31.096Z,24.64
2023-08-11T06:46:32.952Z,24.82
2023-08-11T06:47:37.445Z,24.88
2023-08-11T06:48:39.051Z,24.96
2023-08-11T06:49:40.616Z,25.04
2023-08-11T06:50:42.488Z,25.16
2023-08-11T06:51:44.124Z,25.25
2023-08-11T06:52:45.732Z,25.25
2023-08-11T06:53:47.304Z,25.15
2023-08-11T06:54:48.889Z,25.08
2023-08-11T06:55:50.482Z,24.96
2023-08-11T06:56:52.183Z,24.91
2023-08-11T06:57:53.806Z,25.03
2023-08-11T06:58:55.503Z,25.07
2023-08-11T06:59:57.449Z,25.05
2023-08-11T07:00:59.066Z,25.05
2023-08-11T07:02:00.702Z,25.13
2023-08-11T07:03:02.630Z,25.26
2023-08-11T07:04:05.299Z,25.33
2023-08-11T07:05:07.098Z,25.37
2023-08-11T07:06:08.721Z,25.31
2023-08-11T07:07:10.714Z,25.31
2023-08-11T07:08:12.584Z,25.33
2023-08-11T07:09:14.213Z,25.47
2023-08-11T07:10:15.848Z,25.46
2023-08-11T07:11:17.530Z,25.39
2023-08-11T07:12:19.170Z,25.38
2023-08-11T07:13:20.814Z,25.36
2023-08-11T07:14:22.489Z,25.51
2023-08-11T07:15:24.131Z,25.66
2023-08-11T07:16:25.848Z,25.76
2023-08-11T07:17:35.227Z,25.74
2023-08-11T07:18:36.873Z,25.77
2023-08-11T07:19:38.548Z,25.64
2023-08-11T07:20:43.856Z,25.57
2023-08-11T07:21:45.761Z,25.45
2023-08-11T07:22:47.376Z,25.32
2023-08-11T07:23:49.052Z,25.02
2023-08-11T07:24:50.656Z,24.69
2023-08-11T07:25:52.422Z,24.55
2023-08-11T07:26:54.165Z,24.41
2023-08-11T07:27:55.959Z,24.38
2023-08-11T07:28:57.604Z,24.39
2023-08-11T07:29:59.254Z,24.42
2023-08-11T07:31:00.926Z,24.38
2023-08-11T07:32:04.925Z,24.32
2023-08-11T07:33:06.601Z,24.43
2023-08-11T07:34:08.276Z,24.56
2023-08-11T07:35:09.992Z,24.47
2023-08-11T07:36:11.606Z,24.31
2023-08-11T07:37:13.181Z,24.29
2023-08-11T07:38:14.849Z,24.36
2023-08-11T07:39:23.352Z,24.48
2023-08-11T07:40:25.652Z,24.48
2023-08-11T07:41:27.239Z,24.58
2023-08-11T07:42:28.855Z,24.47
2023-08-11T07:43:30.548Z,24.31
2023-08-11T07:44:35.331Z,24.26
2023-08-11T07:45:39.757Z,24.17
2023-08-11T07:46:41.792Z,24.17
2023-08-11T07:47:43.515Z,24.21
2023-08-11T07:48:45.123Z,24.36
2023-08-11T07:49:46.752Z,24.48
2023-08-11T07:50:48.435Z,24.51
2023-08-11T07:51:50.625Z,24.63
2023-08-11T07:52:52.217Z,24.80
2023-08-11T07:53:53.849Z,24.84
2023-08-11T07:54:55.570Z,24.85
2023-08-11T07:55:57.290Z,24.85
2023-08-11T07:56:59.123Z,24.93
2023-08-11T07:58:00.709Z,24.93
2023-08-11T07:59:03.338Z,24.76
2023-08-11T08:00:06.629Z,24.68
2023-08-11T08:01:09.601Z,24.67
2023-08-11T08:02:14.071Z,24.65
2023-08-11T08:03:18.283Z,24.74
2023-08-11T08:04:20.512Z,24.95
2023-08-11T08:05:22.688Z,25.01
2023-08-11T08:06:24.283Z,25.11
2023-08-11T08:07:25.868Z,25.18
2023-08-11T08:08:27.572Z,25.11
2023-08-11T08:09:30.100Z,25.14
2023-08-11T08:10:32.227Z,25.25
2023-08-11T08:11:33.845Z,25.29
2023-08-11T08:12:39.565Z,25.35
2023-08-11T08:13:41.204Z,25.34
2023-08-11T08:14:43.837Z,25.09
2023-08-11T08:15:45.409Z,25.16
2023-08-11T08:16:47.100Z,25.27
2023-08-11T08:17:48.785Z,25.36
2023-08-11T08:18:50.407Z,25.49
2023-08-11T08:19:52.097Z,25.41
2023-08-11T08:20:53.756Z,25.42
2023-08-11T08:21:55.377Z,25.42
2023-08-11T08:22:57.012Z,25.53
2023-08-11T08:23:58.892Z,25.70
2023-08-11T08:25:00.603Z,25.84
2023-08-11T08:26:02.193Z,25.96
2023-08-11T08:27:03.835Z,26.07
2023-08-11T08:28:07.144Z,26.17
2023-08-11T08:29:09.083Z,26.11
2023-08-11T08:30:12.829Z,26.05
2023-08-11T08:31:15.101Z,26.07
2023-08-11T08:32:16.649Z,25.95
2023-08-11T08:33:18.391Z,25.98
2023-08-11T08:34:20.169Z,25.84
2023-08-11T08:35:21.774Z,25.72
2023-08-11T08:36:23.359Z,25.67
2023-08-11T08:37:26.009Z,25.75
2023-08-11T08:38:27.599Z,25.83
2023-08-11T08:39:29.248Z,25.92
2023-08-11T08:40:31.424Z,25.83
2023-08-11T08:41:33.664Z,25.80
2023-08-11T08:42:35.824Z,25.85
2023-08-11T08:43:37.515Z,25.94
2023-08-11T08:44:39.439Z,26.09
2023-08-11T08:45:44.568Z,26.26
2023-08-11T08:46:48.993Z,26.38
2023-08-11T08:47:52.287Z,26.50
2023-08-11T08:49:23.622Z,26.62
2023-08-11T08:50:26.259Z,26.80
2023-08-11T08:51:28.615Z,26.79
2023-08-11T08:52:34.006Z,26.81
2023-08-11T08:53:35.830Z,26.84
2023-08-11T08:54:37.520Z,26.84
2023-08-11T08:55:39.238Z,26.92
2023-08-11T08:56:41.112Z,27.04
2023-08-11T08:57:42.732Z,27.06
2023-08-11T08:58:44.474Z,27.10
2023-08-11T08:59:46.048Z,27.05
2023-08-11T09:00:47.837Z,26.97
2023-08-11T09:01:51.540Z,26.88
2023-08-11T09:02:55.330Z,26.80
2023-08-11T09:03:58.003Z,26.85
2023-08-11T09:04:59.879Z,26.91
2023-08-11T09:06:01.728Z,26.87
2023-08-11T09:07:03.746Z,26.85
2023-08-11T09:08:05.526Z,26.71
2023-08-11T09:09:09.654Z,26.66
2023-08-11T09:10:11.377Z,26.52
2023-08-11T09:11:13.594Z,26.32
2023-08-11T09:12:15.512Z,26.26
2023-08-11T09:13:17.464Z,26.35
2023-08-11T09:14:21.968Z,26.36
2023-08-11T09:15:23.681Z,26.46
2023-08-11T09:16:25.807Z,26.56
2023-08-11T09:17:27.914Z,26.66
2023-08-11T09:18:30.196Z,26.81
2023-08-11T09:19:31.850Z,26.82
2023-08-11T09:20:35.859Z,26.61
2023-08-11T09:21:37.594Z,26.55
2023-08-11T09:22:41.052Z,26.59
2023-08-11T09:23:44.206Z,26.57
2023-08-11T09:24:47.077Z,26.52
2023-08-11T09:25:48.653Z,26.46
2023-08-11T09:26:50.603Z,26.46
2023-08-11T09:27:52.501Z,26.52
2023-08-11T09:28:54.811Z,26.57
2023-08-11T09:29:56.601Z,26.51
2023-08-11T09:30:58.269Z,26.55
2023-08-11T09:32:03.500Z,26.68
2023-08-11T09:33:09.239Z,26.81
2023-08-11T09:34:14.188Z,26.85
2023-08-11T09:35:15.828Z,26.88
2023-08-11T09:36:19.142Z,27.01
2023-08-11T09:37:20.770Z,27.18
2023-08-11T09:38:22.396Z,27.26
2023-08-11T09:39:24.086Z,27.24
2023-08-11T09:40:26.861Z,27.09
2023-08-11T09:41:28.459Z,26.97
2023-08-11T09:42:30.223Z,26.97
2023-08-11T09:43:32.674Z,26.94
2023-08-11T09:44:34.713Z,26.75
2023-08-11T09:45:36.304Z,26.43
2023-08-11T09:46:39.635Z,26.27
2023-08-11T09:47:41.922Z,26.50
2023-08-11T09:48:43.567Z,26.72
2023-08-11T09:49:45.141Z,26.84
2023-08-11T09:50:46.999Z,26.84
2023-08-11T09:51:51.151Z,26.89
2023-08-11T09:52:53.671Z,26.98
2023-08-11T09:53:56.084Z,27.03
2023-08-11T09:55:04.932Z,27.15
2023-08-11T09:56:07.270Z,27.19
2023-08-11T09:57:09.868Z,27.16
2023-08-11T09:58:14.422Z,27.16
2023-08-11T09:59:19.669Z,27.16
2023-08-11T10:00:21.334Z,27.15
2023-08-11T10:01:23.312Z,27.14
2023-08-11T10:02:30.208Z,27.17
2023-08-11T10:03:37.607Z,27.11
2023-08-11T10:04:45.864Z,27.11
2023-08-11T10:05:52.021Z,27.17
2023-08-11T10:06:57.248Z,27.14
2023-08-11T10:08:01.404Z,27.18
2023-08-11T10:09:04.493Z,27.18
2023-08-11T10:10:13.701Z,27.16
2023-08-11T10:11:16.350Z,27.17
2023-08-11T10:12:19.466Z,27.10
2023-08-11T10:13:27.320Z,27.16
2023-08-11T10:14:30.191Z,27.17
2023-08-11T10:15:33.076Z,27.24
2023-08-11T10:16:36.406Z,27.34
2023-08-11T10:17:38.422Z,27.36
2023-08-11T10:18:42.807Z,27.33
2023-08-11T10:19:45.466Z,27.25
2023-08-11T10:20:49.660Z,27.11
2023-08-11T10:21:51.547Z,27.09
2023-08-11T10:22:53.135Z,27.12
2023-08-11T10:23:55.598Z,27.15
2023-08-11T10:24:57.225Z,27.11
2023-08-11T10:25:59.034Z,27.21
2023-08-11T10:27:00.861Z,27.29
2023-08-11T10:28:03.967Z,27.34
2023-08-11T10:29:06.014Z,27.37
2023-08-11T10:30:10.054Z,27.35
2023-08-11T10:31:11.723Z,27.33
2023-08-11T10:32:13.321Z,27.43
2023-08-11T10:33:14.960Z,27.43
2023-08-11T10:34:22.251Z,27.43
2023-08-11T10:35:33.866Z,27.42
2023-08-11T10:36:35.543Z,27.47
2023-08-11T10:37:37.297Z,27.52
2023-08-11T10:38:38.937Z,27.56
2023-08-11T10:39:41.108Z,27.67
2023-08-11T10:40:43.031Z,27.70
2023-08-11T10:41:45.406Z,27.71
2023-08-11T10:42:47.817Z,27.60
2023-08-11T10:43:50.287Z,27.62
2023-08-11T10:44:51.956Z,27.63
2023-08-11T10:45:55.114Z,27.69
2023-08-11T10:47:03.489Z,27.78
2023-08-11T10:48:10.472Z,27.78
2023-08-11T10:49:15.168Z,27.68
2023-08-11T10:50:19.335Z,27.49
2023-08-11T10:51:31.260Z,27.52
2023-08-11T10:52:35.511Z,27.53
2023-08-11T10:53:40.670Z,27.51
2023-08-11T10:54:52.034Z,27.50
2023-08-11T10:56:01.106Z,27.48
2023-08-11T10:57:04.189Z,27.29
2023-08-11T10:58:18.726Z,27.15
2023-08-11T10:59:24.096Z,27.13
2023-08-11T11:00:26.552Z,27.14
2023-08-11T11:01:28.240Z,27.18
2023-08-11T11:02:30.898Z,27.27
2023-08-11T11:03:33.867Z,27.36
2023-08-11T11:04:35.440Z,27.45
2023-08-11T11:05:37.064Z,27.53
2023-08-11T11:06:40.648Z,27.58
2023-08-11T11:07:42.238Z,27.53
2023-08-11T11:08:43.823Z,27.50
2023-08-11T11:09:45.534Z,27.44
2023-08-11T11:10:50.569Z,27.45
2023-08-11T11:11:53.176Z,27.39
2023-08-11T11:12:54.842Z,27.30
2023-08-11T11:13:56.583Z,27.21
2023-08-11T11:15:01.374Z,27.08
2023-08-11T11:16:02.994Z,26.97
2023-08-11T11:17:05.263Z,26.96
2023-08-11T11:18:07.192Z,27.03
2023-08-11T11:19:10.215Z,27.17
2023-08-11T11:20:14.220Z,27.30
2023-08-11T11:21:16.947Z,27.28
2023-08-11T11:22:18.553Z,27.29
2023-08-11T11:23:20.127Z,27.29
2023-08-11T11:24:21.846Z,27.33
2023-08-11T11:25:23.556Z,27.36
2023-08-11T11:26:27.302Z,27.37
2023-08-11T11:27:28.909Z,27.29
2023-08-11T11:28:30.480Z,27.14
2023-08-11T11:29:33.275Z,27.07
2023-08-11T11:30:35.109Z,26.97
2023-08-11T11:31:40.825Z,26.98
2023-08-11T11:32:43.635Z,26.98
2023-08-11T11:33:46.351Z,27.03
2023-08-11T11:34:48.372Z,27.13
2023-08-11T11:35:50.059Z,27.21
2023-08-11T11:36:51.708Z,27.28
2023-08-11T11:37:53.393Z,27.36
2023-08-11T11:38:55.381Z,27.47
2023-08-11T11:39:57.222Z,27.49
2023-08-11T11:40:58.814Z,27.44
2023-08-11T11:42:10.047Z,27.29
2023-08-11T11:43:11.845Z,27.28
2023-08-11T11:44:13.677Z,27.27
2023-08-11T11:45:16.062Z,27.24
2023-08-11T11:46:20.791Z,27.21
2023-08-11T11:47:22.790Z,27.21
2023-08-11T11:48:24.913Z,27.18
2023-08-11T11:49:30.489Z,27.31
2023-08-11T11:50:32.618Z,27.36
2023-08-11T11:51:34.280Z,27.40
2023-08-11T11:52:37.944Z,27.45
2023-08-11T11:53:40.093Z,27.53
2023-08-11T11:54:41.685Z,27.64
2023-08-11T11:55:45.515Z,27.73
2023-08-11T11:56:58.396Z,27.75
2023-08-11T11:58:06.324Z,27.60
2023-08-11T11:59:07.946Z,27.40
2023-08-11T12:00:17.343Z,27.29
2023-08-11T12:01:20.173Z,27.23
2023-08-11T12:02:23.988Z,27.24
2023-08-11T12:03:25.827Z,27.20
2023-08-11T12:04:27.820Z,27.15
2023-08-11T12:05:29.603Z,27.21
2023-08-11T12:06:31.869Z,27.25
2023-08-11T12:07:35.632Z,27.28
2023-08-11T12:08:37.456Z,27.24
2023-08-11T12:09:55.064Z,27.29
2023-08-11T12:10:56.976Z,27.38
2023-08-11T12:11:58.665Z,27.42
2023-08-11T12:13:01.403Z,27.48
2023-08-11T12:14:03.295Z,27.49
2023-08-11T12:15:07.127Z,27.41
2023-08-11T12:16:10.473Z,27.53
2023-08-11T12:17:12.168Z,27.63
2023-08-11T12:18:14.473Z,27.72
2023-08-11T12:19:17.282Z,27.80
2023-08-11T12:20:22.216Z,27.81
2023-08-11T12:21:23.797Z,27.86
2023-08-11T12:22:25.438Z,27.83
2023-08-11T12:23:27.921Z,27.80
2023-08-11T12:24:29.533Z,27.81
2023-08-11T12:25:31.271Z,27.88
2023-08-11T12:26:32.866Z,27.93
2023-08-11T12:27:37.158Z,28.02
2023-08-11T12:28:38.902Z,28.12
2023-08-11T12:29:40.520Z,28.19
2023-08-11T12:30:42.119Z,28.29
2023-08-11T12:31:45.623Z,28.37
2023-08-11T12:32:47.475Z,28.38
2023-08-11T12:33:49.217Z,28.32
2023-08-11T12:34:50.919Z,28.33
2023-08-11T12:35:52.669Z,28.33
2023-08-11T12:36:54.232Z,28.34
2023-08-11T12:37:55.875Z,28.34
2023-08-11T12:38:57.580Z,28.29
2023-08-11T12:39:59.197Z,28.32
2023-08-11T12:41:00.764Z,28.38
2023-08-11T12:42:02.394Z,28.47
2023-08-11T12:43:04.738Z,28.46
2023-08-11T12:44:06.828Z,28.31
2023-08-11T12:45:08.994Z,28.12
2023-08-11T12:46:10.770Z,28.01
2023-08-11T12:47:13.680Z,28.01
2023-08-11T12:48:16.063Z,27.98
2023-08-11T12:49:18.078Z,27.94
2023-08-11T12:50:19.700Z,27.87
2023-08-11T12:51:21.330Z,27.95
2023-08-11T12:52:22.962Z,27.93
2023-08-11T12:53:24.602Z,27.90
2023-08-11T12:54:26.345Z,27.93
2023-08-11T12:55:28.462Z,27.94
2023-08-11T12:56:30.084Z,27.87
2023-08-11T12:57:31.730Z,27.91
2023-08-11T12:58:33.845Z,27.97
2023-08-11T12:59:36.461Z,28.07
2023-08-11T13:00:38.090Z,28.21
2023-08-11T13:01:39.849Z,28.34
2023-08-11T13:02:41.809Z,28.44
2023-08-11T13:03:44.482Z,28.47
2023-08-11T13:04:46.100Z,28.52
2023-08-11T13:05:47.759Z,28.44
2023-08-11T13:06:49.378Z,28.34
2023-08-11T13:07:51.130Z,28.20
2023-08-11T13:08:53.230Z,28.17
2023-08-11T13:09:55.006Z,28.22
2023-08-11T13:10:57.319Z,28.17
2023-08-11T13:11:59.137Z,28.10
2023-08-11T13:13:01.352Z,28.07
2023-08-11T13:14:03.796Z,27.95
2023-08-11T13:15:07.495Z,27.96
2023-08-11T13:16:09.655Z,27.93
2023-08-11T13:17:11.794Z,27.93
2023-08-11T13:18:13.391Z,27.89
2023-08-11T13:19:15.144Z,27.85
2023-08-11T13:20:16.736Z,27.80
2023-08-11T13:21:18.347Z,27.83
2023-08-11T13:22:19.895Z,27.89
2023-08-11T13:23:21.485Z,27.97
2023-08-11T13:24:23.150Z,27.93
2023-08-11T13:25:24.807Z,27.94
2023-08-11T13:26:26.472Z,28.08
2023-08-11T13:27:28.198Z,28.17